createdAt,value
2023-04-07T00:04:58.787Z,9.04
2023-04-07T00:09:55.826Z,9.05
2023-04-07T00:14:57.200Z,9.04
2023-04-07T00:19:58.274Z,9.04
2023-04-07T00:24:59.645Z,9.09
2023-04-07T00:30:01.714Z,9.06
2023-04-07T00:35:02.315Z,9.09
2023-04-07T00:40:01.650Z,8.96
2023-04-07T00:45:02.715Z,8.94
2023-04-07T00:50:03.840Z,8.97
2023-04-07T00:55:04.991Z,8.96
2023-04-07T01:00:06.152Z,9.02
2023-04-07T01:05:07.484Z,8.97
2023-04-07T01:10:09.675Z,8.97
2023-04-07T01:15:08.837Z,9.05
2023-04-07T01:20:10.905Z,9.05
2023-04-07T01:25:10.041Z,9.05
2023-04-07T01:30:11.089Z,8.87
2023-04-07T01:35:12.156Z,8.83
2023-04-07T01:40:14.224Z,8.84
2023-04-07T01:45:13.401Z,8.83
2023-04-07T01:50:14.492Z,8.78
2023-04-07T01:55:15.751Z,8.75
2023-04-07T02:00:16.938Z,8.73
2023-04-07T02:05:18.989Z,8.63
2023-04-07T02:10:18.127Z,8.66
2023-04-07T02:15:19.291Z,8.63
2023-04-07T02:20:20.445Z,8.58
2023-04-07T02:25:21.481Z,8.42
2023-04-07T02:30:22.659Z,8.51
2023-04-07T02:35:24.730Z,8.53
2023-04-07T02:40:23.858Z,8.51
2023-04-07T02:45:26.019Z,8.53
2023-04-07T02:50:25.147Z,8.53
2023-04-07T02:55:26.228Z,8.54
2023-04-07T03:00:29.290Z,8.63
2023-04-07T03:05:29.357Z,8.60
2023-04-07T03:10:28.491Z,8.65
2023-04-07T03:15:29.942Z,8.65
2023-04-07T03:20:31.109Z,8.63
2023-04-07T03:25:32.195Z,8.60
2023-04-07T03:30:33.295Z,8.53
2023-04-07T03:35:34.464Z,8.47
2023-04-07T03:40:35.619Z,8.40
2023-04-07T03:45:36.798Z,8.35
2023-04-07T03:50:37.887Z,8.30
2023-04-07T03:55:39.022Z,8.35
2023-04-07T04:00:40.198Z,8.37
2023-04-07T04:05:41.305Z,8.28
2023-04-07T04:10:42.503Z,8.30
2023-04-07T04:15:43.678Z,8.33
2023-04-07T04:20:44.826Z,8.28
2023-04-07T04:25:45.876Z,8.21
2023-04-07T04:30:47.993Z,8.18
2023-04-07T04:35:47.141Z,8.12
2023-04-07T04:40:48.284Z,8.17
2023-04-07T04:45:49.443Z,8.20
2023-04-07T04:50:50.555Z,8.22
2023-04-07T04:55:51.653Z,8.32
2023-04-07T05:00:53.859Z,8.35
2023-04-07T05:05:52.966Z,8.39
2023-04-07T05:10:54.101Z,8.42
2023-04-07T05:15:55.198Z,8.47
2023-04-07T05:20:56.299Z,8.48
2023-04-07T05:25:57.421Z,8.54
2023-04-07T05:30:58.534Z,8.55
2023-04-07T05:36:00.680Z,8.62
2023-04-07T05:40:59.690Z,8.65
2023-04-07T05:46:00.869Z,8.75
2023-04-07T05:51:01.951Z,8.83
2023-04-07T05:56:03.108Z,9.09
2023-04-07T06:01:04.152Z,9.20
2023-04-07T06:06:05.278Z,9.38
2023-04-07T06:11:06.487Z,9.39
2023-04-07T06:16:07.643Z,9.27
2023-04-07T06:21:09.766Z,9.46
2023-04-07T06:26:08.852Z,9.63
2023-04-07T06:31:09.166Z,9.58
2023-04-07T06:36:10.346Z,9.63
2023-04-07T06:41:12.458Z,9.81
2023-04-07T06:46:12.608Z,9.97
2023-04-07T06:51:12.706Z,9.63
2023-04-07T06:56:12.854Z,10.00
2023-04-07T07:01:11.974Z,9.79
2023-04-07T07:06:13.141Z,10.07
2023-04-07T07:11:14.226Z,10.28
2023-04-07T07:16:15.440Z,10.25
2023-04-07T07:21:18.524Z,10.52
2023-04-07T07:26:17.719Z,10.77
2023-04-07T07:31:18.956Z,10.68
2023-04-07T07:36:20.091Z,11.06
2023-04-07T07:41:22.201Z,11.39
2023-04-07T07:46:21.339Z,11.38
2023-04-07T07:51:23.489Z,11.89
2023-04-07T07:56:22.493Z,12.08
2023-04-07T08:01:23.593Z,11.96
2023-04-07T08:06:25.766Z,12.46
2023-04-07T08:11:25.886Z,13.09
2023-04-07T08:16:27.092Z,13.03
2023-04-07T08:21:26.239Z,11.99
2023-04-07T08:26:27.330Z,13.49
2023-04-07T08:31:28.472Z,13.63
2023-04-07T08:36:28.582Z,13.84
2023-04-07T08:41:29.604Z,13.14
2023-04-07T08:46:31.713Z,13.76
2023-04-07T08:51:31.893Z,14.02
2023-04-07T08:56:32.039Z,14.32
2023-04-07T09:01:31.231Z,14.44
2023-04-07T09:06:32.381Z,14.25
2023-04-07T09:11:33.482Z,14.88
2023-04-07T09:16:34.696Z,13.77
2023-04-07T09:21:35.771Z,13.33
2023-04-07T09:26:37.843Z,12.70
2023-04-07T09:31:38.037Z,13.37
2023-04-07T09:36:37.244Z,12.95
2023-04-07T09:41:38.474Z,13.29
2023-04-07T09:46:40.592Z,13.33
2023-04-07T09:51:40.339Z,13.25
2023-04-07T09:56:39.471Z,13.02
2023-04-07T10:01:40.659Z,13.17
2023-04-07T10:06:42.885Z,13.43
2023-04-07T10:11:43.027Z,13.77
2023-04-07T10:16:43.221Z,13.11
2023-04-07T10:21:42.328Z,13.40
2023-04-07T10:26:43.555Z,14.17
2023-04-07T10:31:44.674Z,13.54
2023-04-07T10:36:45.908Z,14.21
2023-04-07T10:41:47.988Z,13.52
2023-04-07T10:46:47.191Z,13.76
2023-04-07T10:51:48.414Z,13.58
2023-04-07T10:56:49.509Z,13.61
2023-04-07T11:01:51.701Z,13.51
2023-04-07T11:06:51.846Z,13.76
2023-04-07T11:11:51.889Z,13.49
2023-04-07T11:16:50.266Z,14.12
2023-04-07T11:21:51.540Z,14.67
2023-04-07T11:26:53.050Z,13.92
2023-04-07T11:31:57.429Z,13.79
2023-04-07T11:36:52.519Z,13.99
2023-04-07T11:41:52.786Z,14.27
2023-04-07T11:46:54.685Z,14.32
2023-04-07T11:51:53.976Z,14.13
2023-04-07T11:56:56.143Z,14.46
2023-04-07T12:01:57.691Z,14.17
2023-04-07T12:06:54.129Z,14.54
2023-04-07T12:11:55.866Z,14.39
2023-04-07T12:16:55.185Z,14.07
2023-04-07T12:21:57.273Z,14.02
2023-04-07T12:26:57.341Z,14.32
2023-04-07T12:31:56.570Z,13.81
2023-04-07T12:36:57.739Z,14.29
2023-04-07T12:42:00.147Z,14.27
2023-04-07T12:46:59.341Z,13.98
2023-04-07T12:52:00.550Z,13.67
2023-04-07T12:57:03.589Z,13.36
2023-04-07T13:02:03.000Z,13.62
2023-04-07T13:07:05.126Z,13.56
2023-04-07T13:12:04.281Z,14.09
2023-04-07T13:17:05.588Z,13.69
2023-04-07T13:22:06.796Z,13.88
2023-04-07T13:27:08.041Z,13.88
2023-04-07T13:32:09.289Z,13.46
2023-04-07T13:37:11.474Z,13.69
2023-04-07T13:42:12.592Z,13.37
2023-04-07T13:47:11.828Z,13.30
2023-04-07T13:52:13.002Z,13.67
2023-04-07T13:57:14.049Z,13.71
2023-04-07T14:02:15.309Z,13.33
2023-04-07T14:07:16.585Z,13.74
2023-04-07T14:12:17.733Z,13.88
2023-04-07T14:17:19.805Z,13.44
2023-04-07T14:22:18.996Z,12.97
2023-04-07T14:27:21.210Z,12.49
2023-04-07T14:32:20.260Z,12.42
2023-04-07T14:37:22.333Z,12.15
2023-04-07T14:42:21.421Z,12.21
2023-04-07T14:47:22.555Z,12.08
2023-04-07T14:52:24.652Z,12.59
2023-04-07T14:57:23.847Z,12.48
2023-04-07T15:02:25.081Z,12.23
2023-04-07T15:07:26.338Z,11.90
2023-04-07T15:12:27.517Z,11.93
2023-04-07T15:17:40.518Z,11.59
2023-04-07T15:22:28.615Z,11.78
2023-04-07T15:27:29.694Z,11.78
2023-04-07T15:32:31.885Z,12.44
2023-04-07T15:37:31.109Z,12.70
2023-04-07T15:42:31.271Z,12.39
2023-04-07T15:47:31.477Z,12.44
2023-04-07T15:52:32.537Z,12.44
2023-04-07T15:57:34.631Z,12.31
2023-04-07T16:02:33.882Z,12.04
2023-04-07T16:07:36.322Z,11.99
2023-04-07T16:12:37.387Z,11.90
2023-04-07T16:17:36.482Z,11.90
2023-04-07T16:22:37.545Z,11.96
2023-04-07T16:27:38.728Z,11.80
2023-04-07T16:32:40.000Z,11.97
2023-04-07T16:37:41.068Z,12.15
2023-04-07T16:42:43.165Z,12.11
2023-04-07T16:47:42.306Z,11.93
2023-04-07T16:52:43.327Z,11.78
2023-04-07T16:57:44.501Z,11.49
2023-04-07T17:02:45.686Z,10.83
2023-04-07T17:07:46.929Z,10.81
2023-04-07T17:12:49.039Z,10.70
2023-04-07T17:17:49.255Z,10.74
2023-04-07T17:22:48.431Z,10.44
2023-04-07T17:27:49.692Z,10.36
2023-04-07T17:32:50.908Z,10.33
2023-04-07T17:37:55.915Z,10.39
2023-04-07T17:42:53.157Z,10.33
2023-04-07T17:47:55.386Z,10.32
2023-04-07T17:52:54.520Z,10.36
2023-04-07T17:58:00.470Z,10.32
2023-04-07T18:02:55.868Z,10.18
2023-04-07T18:07:57.016Z,10.18
2023-04-07T18:13:01.758Z,10.10
2023-04-07T18:17:58.883Z,9.68
2023-04-07T18:22:59.962Z,9.53
2023-04-07T18:28:02.062Z,9.50
2023-04-07T18:33:01.197Z,9.48
2023-04-07T18:38:02.403Z,9.15
2023-04-07T18:43:05.484Z,9.10
2023-04-07T18:48:05.820Z,8.87
2023-04-07T18:53:05.004Z,8.87
2023-04-07T18:58:07.184Z,8.81
2023-04-07T19:03:06.564Z,8.65
2023-04-07T19:08:07.889Z,8.65
2023-04-07T19:13:09.214Z,8.68
2023-04-07T19:18:10.698Z,8.58
2023-04-07T19:23:09.984Z,8.47
2023-04-07T19:28:11.290Z,8.48
2023-04-07T19:33:12.549Z,8.42
2023-04-07T19:38:14.059Z,8.33
2023-04-07T19:43:13.193Z,8.37
2023-04-07T19:48:14.483Z,8.40
2023-04-07T19:53:15.726Z,8.54
2023-04-07T19:58:16.819Z,8.55
2023-04-07T20:03:19.321Z,8.71
2023-04-07T20:08:18.755Z,8.51
2023-04-07T20:13:20.055Z,8.37
2023-04-07T20:18:21.153Z,8.36
2023-04-07T20:23:24.470Z,8.35
2023-04-07T20:28:23.797Z,8.33
2023-04-07T20:33:25.099Z,8.32
2023-04-07T20:38:26.192Z,8.30
2023-04-07T20:43:27.477Z,8.32
2023-04-07T20:48:28.644Z,8.37
2023-04-07T20:53:29.756Z,8.32
2023-04-07T20:58:31.104Z,8.35
2023-04-07T21:03:33.228Z,8.17
2023-04-07T21:08:32.436Z,8.22
2023-04-07T21:13:33.541Z,8.11
2023-04-07T21:18:34.624Z,8.25
2023-04-07T21:23:35.734Z,8.22
2023-04-07T21:28:36.770Z,7.87
2023-04-07T21:33:37.904Z,7.75
2023-04-07T21:38:39.123Z,7.78
2023-04-07T21:43:41.177Z,7.81
2023-04-07T21:48:41.231Z,7.87
2023-04-07T21:53:40.393Z,7.87
2023-04-07T21:58:43.465Z,7.85
2023-04-07T22:03:42.580Z,7.87
2023-04-07T22:08:48.934Z,7.75
2023-04-07T22:13:43.664Z,7.58
2023-04-07T22:18:44.717Z,7.56
2023-04-07T22:23:45.876Z,7.56
2023-04-07T22:28:46.996Z,7.66
2023-04-07T22:33:48.176Z,7.78
2023-04-07T22:38:49.422Z,7.71
2023-04-07T22:43:50.734Z,7.67
2023-04-07T22:48:53.765Z,7.75
2023-04-07T22:53:52.914Z,7.63
2023-04-07T22:58:54.981Z,7.62
2023-04-07T23:03:55.108Z,7.60
2023-04-07T23:08:54.189Z,7.55
2023-04-07T23:13:55.254Z,7.44
2023-04-07T23:18:55.381Z,7.40
2023-04-07T23:23:56.472Z,7.47
2023-04-07T23:28:57.694Z,7.49
2023-04-07T23:34:00.765Z,7.52
2023-04-07T23:38:59.912Z,7.52
2023-04-07T23:44:01.131Z,7.56
2023-04-07T23:49:02.300Z,7.19
2023-04-07T23:54:03.482Z,7.22
2023-04-07T23:59:04.594Z,7.32
